createdAt,value
2018-06-29T00:00:04.607Z,3.60
2018-06-29T00:01:04.765Z,3.50
2018-06-29T00:02:04.923Z,3.60
2018-06-29T00:03:05.080Z,3.40
2018-06-29T00:04:05.241Z,3.40
2018-06-29T00:05:05.399Z,3.60
2018-06-29T00:06:05.554Z,3.80
2018-06-29T00:07:05.710Z,3.50
2018-06-29T00:08:05.870Z,3.60
2018-06-29T00:09:06.029Z,3.80
2018-06-29T00:10:06.183Z,3.60
2018-06-29T00:11:06.341Z,3.70
2018-06-29T00:12:06.501Z,4.00
2018-06-29T00:13:06.659Z,4.20
2018-06-29T00:14:06.815Z,4.10
2018-06-29T00:15:06.973Z,4.80
2018-06-29T00:16:07.132Z,4.30
2018-06-29T00:17:07.294Z,5.00
2018-06-29T00:18:07.454Z,5.30
2018-06-29T00:19:07.607Z,5.90
2018-06-29T00:20:07.763Z,6.20
2018-06-29T00:21:07.921Z,6.70
2018-06-29T00:22:08.078Z,7.00
2018-06-29T00:23:08.237Z,6.90
2018-06-29T00:24:08.394Z,6.10
2018-06-29T00:25:08.551Z,5.90
2018-06-29T00:26:08.707Z,5.10
2018-06-29T00:27:08.867Z,4.70
2018-06-29T00:28:09.022Z,4.90
2018-06-29T00:29:09.191Z,4.30
2018-06-29T00:30:09.340Z,4.20
2018-06-29T00:31:09.499Z,3.80
2018-06-29T00:32:09.658Z,3.50
2018-06-29T00:33:09.814Z,3.80
2018-06-29T00:34:09.974Z,4.60
2018-06-29T00:35:10.130Z,4.40
2018-06-29T00:36:10.287Z,4.70
2018-06-29T00:37:10.443Z,3.80
2018-06-29T00:38:10.600Z,4.00
2018-06-29T00:39:10.761Z,3.90
2018-06-29T00:40:10.914Z,3.80
2018-06-29T00:41:11.075Z,3.70
2018-06-29T00:42:11.233Z,3.70
2018-06-29T00:43:11.388Z,3.70
2018-06-29T00:44:11.549Z,3.90
2018-06-29T00:45:11.714Z,4.20
2018-06-29T00:46:11.866Z,4.10
2018-06-29T00:47:12.023Z,3.60
2018-06-29T00:48:12.180Z,3.80
2018-06-29T00:49:12.335Z,4.30
2018-06-29T00:50:12.493Z,4.80
2018-06-29T00:51:12.648Z,4.70
2018-06-29T00:52:12.804Z,4.70
2018-06-29T00:53:12.962Z,5.20
2018-06-29T00:54:13.117Z,4.80
2018-06-29T00:55:13.315Z,4.80
2018-06-29T00:56:13.430Z,4.60
2018-06-29T00:57:13.586Z,4.80
2018-06-29T00:58:13.741Z,4.30
2018-06-29T00:59:13.908Z,4.70
2018-06-29T01:00:14.063Z,4.10
2018-06-29T01:01:14.221Z,4.60
2018-06-29T01:02:14.376Z,4.30
2018-06-29T01:03:14.531Z,4.50
2018-06-29T01:04:14.690Z,4.40
2018-06-29T01:05:14.845Z,4.60
2018-06-29T01:06:15.004Z,4.50
2018-06-29T01:07:15.160Z,4.10
2018-06-29T01:08:15.329Z,4.00
2018-06-29T01:09:15.474Z,4.30
2018-06-29T01:10:15.632Z,4.50
2018-06-29T01:11:15.788Z,4.70
2018-06-29T01:12:15.945Z,5.30
2018-06-29T01:13:16.102Z,4.80
2018-06-29T01:14:16.260Z,4.90
2018-06-29T01:15:16.416Z,5.60
2018-06-29T01:16:16.571Z,5.00
2018-06-29T01:17:16.729Z,5.00
2018-06-29T01:18:16.883Z,5.30
2018-06-29T01:19:17.040Z,4.90
2018-06-29T01:20:17.199Z,5.20
2018-06-29T01:21:17.352Z,5.30
2018-06-29T01:22:17.509Z,5.30
2018-06-29T01:23:17.669Z,4.90
2018-06-29T01:24:17.828Z,5.30
2018-06-29T01:25:17.982Z,4.80
2018-06-29T01:26:18.141Z,4.90
2018-06-29T01:27:18.298Z,5.00
2018-06-29T01:28:18.452Z,5.30
2018-06-29T01:29:18.609Z,4.90
2018-06-29T01:30:18.765Z,4.90
2018-06-29T01:31:18.923Z,5.00
2018-06-29T01:32:19.078Z,4.70
2018-06-29T01:33:19.234Z,5.20
2018-06-29T01:34:19.395Z,4.60
2018-06-29T01:35:19.551Z,4.70
2018-06-29T01:36:19.705Z,4.60
2018-06-29T01:37:19.868Z,4.40
2018-06-29T01:38:20.024Z,4.90
2018-06-29T01:39:20.179Z,5.20
2018-06-29T01:40:20.336Z,5.10
2018-06-29T01:41:20.544Z,4.80
2018-06-29T01:42:20.650Z,4.90
2018-06-29T01:43:20.810Z,5.70
2018-06-29T01:44:20.962Z,5.40
2018-06-29T01:45:21.122Z,4.80
2018-06-29T01:46:21.281Z,5.10
2018-06-29T01:47:21.437Z,5.40
2018-06-29T01:48:21.590Z,4.90
2018-06-29T01:49:21.747Z,5.10
2018-06-29T01:50:21.903Z,4.70
2018-06-29T01:51:22.061Z,5.00
2018-06-29T01:52:22.217Z,4.50
2018-06-29T01:53:22.375Z,4.20
2018-06-29T01:54:22.529Z,4.70
2018-06-29T01:55:22.685Z,4.70
2018-06-29T01:56:22.842Z,4.40
2018-06-29T01:57:22.995Z,4.60
2018-06-29T01:58:23.154Z,4.10
2018-06-29T01:59:23.309Z,4.70
2018-06-29T02:00:23.470Z,3.90
2018-06-29T02:01:23.623Z,4.20
2018-06-29T02:02:23.781Z,4.10
2018-06-29T02:03:23.939Z,4.10
2018-06-29T02:04:24.093Z,4.50
2018-06-29T02:05:24.251Z,4.40
2018-06-29T02:06:24.407Z,4.20
2018-06-29T02:07:24.565Z,4.20
2018-06-29T02:08:24.722Z,4.30
2018-06-29T02:09:24.875Z,4.30
2018-06-29T02:10:25.033Z,4.40
2018-06-29T02:11:25.188Z,4.20
2018-06-29T02:12:25.343Z,3.70
2018-06-29T02:13:25.500Z,3.50
2018-06-29T02:14:25.656Z,4.10
2018-06-29T02:15:25.811Z,4.00
2018-06-29T02:16:25.971Z,3.80
2018-06-29T02:17:26.128Z,3.30
2018-06-29T02:18:26.283Z,3.90
2018-06-29T02:19:26.440Z,3.80
2018-06-29T02:20:26.613Z,3.60
2018-06-29T02:21:26.757Z,3.70
2018-06-29T02:22:26.912Z,3.60
2018-06-29T02:23:27.070Z,3.90
2018-06-29T02:24:27.228Z,3.90
2018-06-29T02:25:27.386Z,3.40
2018-06-29T02:26:27.540Z,3.80
2018-06-29T02:27:27.696Z,3.20
2018-06-29T02:28:27.852Z,3.20
2018-06-29T02:29:28.007Z,3.50
2018-06-29T02:30:28.196Z,3.20
2018-06-29T02:31:28.322Z,3.20
2018-06-29T02:32:28.478Z,3.20
2018-06-29T02:33:28.635Z,3.20
2018-06-29T02:34:28.792Z,3.00
2018-06-29T02:35:28.945Z,3.30
2018-06-29T02:36:29.105Z,3.50
2018-06-29T02:37:29.256Z,3.20
2018-06-29T02:38:29.418Z,3.40
2018-06-29T02:39:29.568Z,3.50
2018-06-29T02:40:29.725Z,3.20
2018-06-29T02:41:29.883Z,3.50
2018-06-29T02:42:30.039Z,3.20
2018-06-29T02:43:30.194Z,3.50
2018-06-29T02:44:30.350Z,3.70
2018-06-29T02:45:30.506Z,3.50
2018-06-29T02:46:30.668Z,3.40
2018-06-29T02:47:30.828Z,3.50
2018-06-29T02:48:30.979Z,3.50
2018-06-29T02:49:31.133Z,4.00
2018-06-29T02:50:31.289Z,3.80
2018-06-29T02:51:31.447Z,3.60
2018-06-29T02:52:31.625Z,4.20
2018-06-29T02:53:31.755Z,4.10
2018-06-29T02:54:31.912Z,4.50
2018-06-29T02:55:32.078Z,4.70
2018-06-29T02:56:32.239Z,4.40
2018-06-29T02:57:32.511Z,4.60
2018-06-29T02:58:32.581Z,4.90
2018-06-29T02:59:32.737Z,4.60
2018-06-29T03:00:32.893Z,4.80
2018-06-29T03:01:33.049Z,4.70
2018-06-29T03:02:33.206Z,4.60
2018-06-29T03:03:33.360Z,4.60
2018-06-29T03:04:33.519Z,4.70
2018-06-29T03:05:33.673Z,4.50
2018-06-29T03:06:33.827Z,4.30
2018-06-29T03:07:33.987Z,4.70
2018-06-29T03:08:34.147Z,4.40
2018-06-29T03:09:34.300Z,4.40
2018-06-29T03:10:34.457Z,4.30
2018-06-29T03:11:34.615Z,4.60
2018-06-29T03:12:34.771Z,4.60
2018-06-29T03:13:34.930Z,4.40
2018-06-29T03:14:35.091Z,4.50
2018-06-29T03:15:35.241Z,4.30
2018-06-29T03:16:35.399Z,4.50
2018-06-29T03:17:35.557Z,4.30
2018-06-29T03:18:35.713Z,5.10
2018-06-29T03:19:35.870Z,4.70
2018-06-29T03:20:36.029Z,4.70
2018-06-29T03:21:36.184Z,4.70
2018-06-29T03:22:36.341Z,4.40
2018-06-29T03:23:36.498Z,4.50
2018-06-29T03:24:36.656Z,4.70
2018-06-29T03:25:36.808Z,4.40
2018-06-29T03:26:36.968Z,4.20
2018-06-29T03:27:37.125Z,4.50
2018-06-29T03:28:37.279Z,4.20
2018-06-29T03:29:37.437Z,4.40
2018-06-29T03:30:37.594Z,4.30
2018-06-29T03:31:37.751Z,4.60
2018-06-29T03:32:37.911Z,4.70
2018-06-29T03:33:38.064Z,4.40
2018-06-29T03:34:38.224Z,5.10
2018-06-29T03:35:38.381Z,4.40
2018-06-29T03:36:38.535Z,4.10
2018-06-29T03:37:38.694Z,3.90
2018-06-29T03:38:38.852Z,4.40
2018-06-29T03:39:39.010Z,4.50
2018-06-29T03:40:39.295Z,4.50
2018-06-29T03:41:39.324Z,4.30
2018-06-29T03:42:39.484Z,4.20
2018-06-29T03:43:39.650Z,4.50
2018-06-29T03:44:39.802Z,4.00
2018-06-29T03:45:39.957Z,4.30
2018-06-29T03:46:40.114Z,4.00
2018-06-29T03:47:40.274Z,4.20
2018-06-29T03:48:40.427Z,4.10
2018-06-29T03:49:40.585Z,4.30
2018-06-29T03:50:40.744Z,4.00
2018-06-29T03:51:40.898Z,3.90
2018-06-29T03:52:41.061Z,4.40
2018-06-29T03:53:41.212Z,4.20
2018-06-29T03:54:41.369Z,4.60
2018-06-29T03:55:41.527Z,3.90
2018-06-29T03:56:41.685Z,4.20
2018-06-29T03:57:41.843Z,4.10
2018-06-29T03:58:42.001Z,4.30
2018-06-29T03:59:42.158Z,4.30
2018-06-29T04:00:42.312Z,4.50
2018-06-29T04:01:42.472Z,4.30
2018-06-29T04:02:42.628Z,4.00
2018-06-29T04:03:42.785Z,4.10
2018-06-29T04:04:42.942Z,4.20
2018-06-29T04:05:43.109Z,4.40
2018-06-29T04:06:43.266Z,4.10
2018-06-29T04:07:43.424Z,4.10
2018-06-29T04:08:43.584Z,4.20
2018-06-29T04:09:43.741Z,3.70
2018-06-29T04:10:43.898Z,4.10
2018-06-29T04:11:44.075Z,4.20
2018-06-29T04:12:44.203Z,4.40
2018-06-29T04:13:44.361Z,4.30
2018-06-29T04:14:44.517Z,3.90
2018-06-29T04:15:44.675Z,3.90
2018-06-29T04:16:44.832Z,3.70
2018-06-29T04:17:44.989Z,3.90
2018-06-29T04:18:45.149Z,3.60
2018-06-29T04:19:45.305Z,3.80
2018-06-29T04:20:45.464Z,3.70
2018-06-29T04:21:45.619Z,3.80
2018-06-29T04:22:45.779Z,3.70
2018-06-29T04:23:45.934Z,4.20
2018-06-29T04:24:46.091Z,3.50
2018-06-29T04:25:46.245Z,3.80
2018-06-29T04:26:46.401Z,3.40
2018-06-29T04:27:46.557Z,3.90
2018-06-29T04:28:46.715Z,3.60
2018-06-29T04:29:46.870Z,3.60
2018-06-29T04:30:47.025Z,3.50
2018-06-29T04:31:47.179Z,3.70
2018-06-29T04:32:47.341Z,3.50
2018-06-29T04:33:47.493Z,3.50
2018-06-29T04:34:47.649Z,3.50
2018-06-29T04:35:47.809Z,3.70
2018-06-29T04:36:47.965Z,3.60
2018-06-29T04:37:48.121Z,3.80
2018-06-29T04:38:48.269Z,3.70
2018-06-29T04:39:48.422Z,3.70
2018-06-29T04:40:48.579Z,4.00
2018-06-29T04:41:48.735Z,3.70
2018-06-29T04:42:48.918Z,3.80
2018-06-29T04:43:49.041Z,3.80
2018-06-29T04:44:49.223Z,3.80
2018-06-29T04:45:49.357Z,4.20
2018-06-29T04:46:49.518Z,4.20
2018-06-29T04:47:49.674Z,4.00
2018-06-29T04:48:49.905Z,4.30
2018-06-29T04:49:49.980Z,4.20
2018-06-29T04:50:50.135Z,4.60
2018-06-29T04:51:50.290Z,5.60
2018-06-29T04:52:50.469Z,5.30
2018-06-29T04:53:50.598Z,4.90
2018-06-29T04:54:50.751Z,4.00
2018-06-29T04:55:50.906Z,4.00
2018-06-29T04:56:51.060Z,4.00
2018-06-29T04:57:51.225Z,3.60
2018-06-29T04:58:51.377Z,3.70
2018-06-29T04:59:51.536Z,3.70
2018-06-29T05:00:51.693Z,4.00
2018-06-29T05:01:51.848Z,4.10
2018-06-29T05:02:52.007Z,5.70
2018-06-29T05:03:52.164Z,4.70
2018-06-29T05:04:52.318Z,5.40
2018-06-29T05:05:52.478Z,6.20
2018-06-29T05:06:52.634Z,5.00
2018-06-29T05:07:52.790Z,4.00
2018-06-29T05:08:52.949Z,3.70
2018-06-29T05:09:53.106Z,3.40
2018-06-29T05:10:53.262Z,3.40
2018-06-29T05:11:53.420Z,3.10
2018-06-29T05:12:53.577Z,3.30
2018-06-29T05:13:53.735Z,3.90
2018-06-29T05:14:53.893Z,3.80
2018-06-29T05:15:54.050Z,3.70
2018-06-29T05:16:54.206Z,3.80
2018-06-29T05:17:54.362Z,3.50
2018-06-29T05:18:54.519Z,3.90
2018-06-29T05:19:54.678Z,4.20
2018-06-29T05:20:54.835Z,4.90
2018-06-29T05:21:54.995Z,4.60
2018-06-29T05:22:55.151Z,4.60
2018-06-29T05:23:55.307Z,4.60
2018-06-29T05:24:55.465Z,5.10
2018-06-29T05:25:55.624Z,3.90
2018-06-29T05:26:55.781Z,4.40
2018-06-29T05:27:55.941Z,3.50
2018-06-29T05:28:56.099Z,4.00
2018-06-29T05:29:56.257Z,3.50
2018-06-29T05:30:56.415Z,3.10
2018-06-29T05:31:56.578Z,3.10
2018-06-29T05:32:56.758Z,2.90
2018-06-29T05:33:56.914Z,3.00
2018-06-29T05:34:57.074Z,2.90
2018-06-29T05:35:57.304Z,2.90
2018-06-29T05:36:57.394Z,2.90
2018-06-29T05:37:57.551Z,3.20
2018-06-29T05:38:57.709Z,3.80
2018-06-29T05:39:57.866Z,4.10
2018-06-29T05:40:58.023Z,3.80
2018-06-29T05:41:58.183Z,3.90
2018-06-29T05:42:58.344Z,4.00
2018-06-29T05:43:58.504Z,3.60
2018-06-29T05:44:58.662Z,4.20
2018-06-29T05:45:58.823Z,4.30
2018-06-29T05:46:59.063Z,5.20
2018-06-29T05:47:59.138Z,5.60
2018-06-29T05:48:59.298Z,4.40
2018-06-29T05:49:59.455Z,4.10
2018-06-29T05:50:59.613Z,3.70
2018-06-29T05:51:59.772Z,3.70
2018-06-29T05:52:59.938Z,4.40
2018-06-29T05:54:00.092Z,4.20
2018-06-29T05:55:00.250Z,3.10
2018-06-29T05:56:00.411Z,3.30
2018-06-29T05:57:00.566Z,3.40
2018-06-29T05:58:00.808Z,2.90
2018-06-29T05:59:00.881Z,3.00
2018-06-29T06:00:01.041Z,3.50
2018-06-29T06:01:01.198Z,3.50
2018-06-29T06:02:01.372Z,3.50
2018-06-29T06:03:01.529Z,3.80
2018-06-29T06:04:01.727Z,3.50
2018-06-29T06:05:01.835Z,3.60
2018-06-29T06:06:01.993Z,3.60
2018-06-29T06:07:02.150Z,3.60
2018-06-29T06:08:02.308Z,3.60
2018-06-29T06:09:02.467Z,2.80
2018-06-29T06:10:02.661Z,3.10
2018-06-29T06:11:02.804Z,2.50
2018-06-29T06:12:02.945Z,3.00
2018-06-29T06:13:03.103Z,2.90
2018-06-29T06:14:03.261Z,2.80
2018-06-29T06:15:03.424Z,2.70
2018-06-29T06:16:03.587Z,2.70
2018-06-29T06:17:03.745Z,3.20
2018-06-29T06:18:03.902Z,3.10
2018-06-29T06:19:04.060Z,2.80
2018-06-29T06:20:04.217Z,2.80
2018-06-29T06:21:04.378Z,3.30
2018-06-29T06:22:04.626Z,2.90
2018-06-29T06:23:04.694Z,2.80
2018-06-29T06:24:04.853Z,2.50
2018-06-29T06:25:05.014Z,2.50
2018-06-29T06:26:05.169Z,3.20
2018-06-29T06:27:05.329Z,3.00
2018-06-29T06:28:05.486Z,3.20
2018-06-29T06:29:05.650Z,3.40
2018-06-29T06:30:05.805Z,3.00
2018-06-29T06:31:05.966Z,2.60
2018-06-29T06:32:06.122Z,2.80
2018-06-29T06:33:06.335Z,2.70
2018-06-29T06:34:06.442Z,3.50
2018-06-29T06:35:06.603Z,3.80
2018-06-29T06:36:06.760Z,3.00
2018-06-29T06:37:06.920Z,2.70
2018-06-29T06:38:07.074Z,2.90
2018-06-29T06:39:07.235Z,2.90
2018-06-29T06:40:07.394Z,3.50
2018-06-29T06:41:07.555Z,3.00
2018-06-29T06:42:07.704Z,3.20
2018-06-29T06:43:07.860Z,3.60
2018-06-29T06:44:08.017Z,3.40
2018-06-29T06:45:08.178Z,4.00
2018-06-29T06:46:08.338Z,3.60
2018-06-29T06:47:08.497Z,3.10
2018-06-29T06:48:08.655Z,2.90
2018-06-29T06:49:08.815Z,3.10
2018-06-29T06:50:08.972Z,2.40
2018-06-29T06:51:09.134Z,2.60
2018-06-29T06:52:09.296Z,3.60
2018-06-29T06:53:09.454Z,2.50
2018-06-29T06:54:09.612Z,2.30
2018-06-29T06:55:09.770Z,3.50
2018-06-29T06:56:09.939Z,3.50
2018-06-29T06:57:10.089Z,3.20
2018-06-29T06:58:10.247Z,2.40
2018-06-29T06:59:10.406Z,2.50
2018-06-29T07:00:10.566Z,2.90
2018-06-29T07:01:10.728Z,2.30
2018-06-29T07:02:10.883Z,2.20
2018-06-29T07:03:11.044Z,2.10
2018-06-29T07:04:11.204Z,2.30
2018-06-29T07:05:11.361Z,2.80
2018-06-29T07:06:11.519Z,2.70
2018-06-29T07:07:11.680Z,2.70
2018-06-29T07:08:11.839Z,2.90
2018-06-29T07:09:12.002Z,3.10
2018-06-29T07:10:12.162Z,2.80
2018-06-29T07:11:12.321Z,2.90
2018-06-29T07:12:12.480Z,3.40
2018-06-29T07:13:12.644Z,3.10
2018-06-29T07:14:12.802Z,3.00
2018-06-29T07:15:12.962Z,2.50
2018-06-29T07:16:13.121Z,2.30
2018-06-29T07:17:13.280Z,2.10
2018-06-29T07:18:13.478Z,2.10
2018-06-29T07:19:13.599Z,2.10
2018-06-29T07:20:13.762Z,2.10
2018-06-29T07:21:13.918Z,2.20
2018-06-29T07:22:14.082Z,2.10
2018-06-29T07:23:14.238Z,2.10
2018-06-29T07:24:14.401Z,2.00
2018-06-29T07:25:14.560Z,2.40
2018-06-29T07:26:14.722Z,2.20
2018-06-29T07:27:14.888Z,2.70
2018-06-29T07:28:15.044Z,3.10
2018-06-29T07:29:15.200Z,2.60
2018-06-29T07:30:15.367Z,2.70
2018-06-29T07:31:15.523Z,2.10
2018-06-29T07:32:15.688Z,2.10
2018-06-29T07:33:15.847Z,2.10
2018-06-29T07:34:16.010Z,1.90
2018-06-29T07:35:16.170Z,2.10
2018-06-29T07:36:16.331Z,2.20
2018-06-29T07:37:16.492Z,2.20
2018-06-29T07:38:16.651Z,2.00
2018-06-29T07:39:16.809Z,2.00
2018-06-29T07:40:16.971Z,1.80
2018-06-29T07:41:17.131Z,2.20
2018-06-29T07:42:17.291Z,2.00
2018-06-29T07:43:17.453Z,2.70
2018-06-29T07:44:17.612Z,1.70
2018-06-29T07:45:17.768Z,1.80
2018-06-29T07:46:17.931Z,1.70
2018-06-29T07:47:18.090Z,2.10
2018-06-29T07:48:18.247Z,2.00
2018-06-29T07:49:18.412Z,1.90
2018-06-29T07:50:18.566Z,1.80
2018-06-29T07:51:18.727Z,1.90
2018-06-29T07:52:18.887Z,1.90
2018-06-29T07:53:19.045Z,1.90
2018-06-29T07:54:19.207Z,1.50
2018-06-29T07:55:19.363Z,1.60
2018-06-29T07:56:19.592Z,1.40
2018-06-29T07:57:19.685Z,1.60
2018-06-29T07:58:19.970Z,1.50
2018-06-29T07:59:20.007Z,1.50
2018-06-29T08:00:20.166Z,1.40
2018-06-29T08:01:20.327Z,1.40
2018-06-29T08:02:20.485Z,1.40
2018-06-29T08:03:20.649Z,1.70
2018-06-29T08:04:20.811Z,1.40
2018-06-29T08:05:20.968Z,1.60
2018-06-29T08:06:21.131Z,1.70
2018-06-29T08:07:21.289Z,1.50
2018-06-29T08:08:21.449Z,1.60
2018-06-29T08:09:21.610Z,1.90
2018-06-29T08:10:21.771Z,2.40
2018-06-29T08:11:21.932Z,1.90
2018-06-29T08:12:22.090Z,1.60
2018-06-29T08:13:22.252Z,1.70
2018-06-29T08:14:22.410Z,1.70
2018-06-29T08:15:22.572Z,2.00
2018-06-29T08:16:22.734Z,2.60
2018-06-29T08:17:22.897Z,3.10
2018-06-29T08:18:23.058Z,2.50
2018-06-29T08:19:23.218Z,2.10
2018-06-29T08:20:23.378Z,2.00
2018-06-29T08:21:23.538Z,2.70
2018-06-29T08:22:23.701Z,1.90
2018-06-29T08:23:23.860Z,2.20
2018-06-29T08:24:24.037Z,1.80
2018-06-29T08:25:24.182Z,1.60
2018-06-29T08:26:24.343Z,1.70
2018-06-29T08:27:24.505Z,1.70
2018-06-29T08:28:24.668Z,1.60
2018-06-29T08:29:24.824Z,1.40
2018-06-29T08:30:24.991Z,1.50
2018-06-29T08:31:25.148Z,1.70
2018-06-29T08:32:25.310Z,1.50
2018-06-29T08:33:25.472Z,1.50
2018-06-29T08:34:25.637Z,2.80
2018-06-29T08:35:25.791Z,1.90
2018-06-29T08:36:25.954Z,2.10
2018-06-29T08:37:26.116Z,1.80
2018-06-29T08:38:26.274Z,1.80
2018-06-29T08:39:26.441Z,1.80
2018-06-29T08:40:26.595Z,1.70
2018-06-29T08:41:26.762Z,2.20
2018-06-29T08:42:26.918Z,2.90
2018-06-29T08:43:27.079Z,2.00
2018-06-29T08:44:27.241Z,2.00
2018-06-29T08:45:27.403Z,1.60
2018-06-29T08:46:27.560Z,1.60
2018-06-29T08:47:27.721Z,1.60
2018-06-29T08:48:27.884Z,1.60
2018-06-29T08:49:28.090Z,1.70
2018-06-29T08:50:28.208Z,1.70
2018-06-29T08:51:28.368Z,1.60
2018-06-29T08:52:28.534Z,1.50
2018-06-29T08:53:28.692Z,1.70
2018-06-29T08:54:28.859Z,1.80
2018-06-29T08:55:29.016Z,1.90
2018-06-29T08:56:29.176Z,1.50
2018-06-29T08:57:29.337Z,1.70
2018-06-29T08:58:29.506Z,1.70
2018-06-29T08:59:29.661Z,1.30
2018-06-29T09:00:29.822Z,1.50
2018-06-29T09:01:29.982Z,1.40
2018-06-29T09:02:30.142Z,1.60
2018-06-29T09:03:30.307Z,1.40
2018-06-29T09:04:30.466Z,1.50
2018-06-29T09:05:30.627Z,2.10
2018-06-29T09:06:30.787Z,2.60
2018-06-29T09:07:30.945Z,1.80
2018-06-29T09:08:31.110Z,1.80
2018-06-29T09:09:31.271Z,1.70
2018-06-29T09:10:31.430Z,1.50
2018-06-29T09:11:31.592Z,1.50
2018-06-29T09:12:31.756Z,1.60
2018-06-29T09:13:31.916Z,1.60
2018-06-29T09:14:32.074Z,1.70
2018-06-29T09:15:32.239Z,1.80
2018-06-29T09:16:32.400Z,1.50
2018-06-29T09:17:32.564Z,1.40
2018-06-29T09:18:32.724Z,1.50
2018-06-29T09:19:32.887Z,1.70
2018-06-29T09:20:33.046Z,1.40
2018-06-29T09:21:33.207Z,1.60
2018-06-29T09:22:33.369Z,1.40
2018-06-29T09:23:33.529Z,1.50
2018-06-29T09:24:33.697Z,1.40
2018-06-29T09:25:33.856Z,1.40
2018-06-29T09:26:34.019Z,1.60
2018-06-29T09:27:34.178Z,1.40
2018-06-29T09:28:34.341Z,1.70
2018-06-29T09:29:34.502Z,1.40
2018-06-29T09:30:34.667Z,1.60
2018-06-29T09:31:34.824Z,1.60
2018-06-29T09:32:34.987Z,1.60
2018-06-29T09:33:35.156Z,1.40
2018-06-29T09:34:35.310Z,1.60
2018-06-29T09:35:35.471Z,1.60
2018-06-29T09:36:35.633Z,1.60
2018-06-29T09:37:35.802Z,1.40
2018-06-29T09:38:35.952Z,1.50
2018-06-29T09:39:36.114Z,1.70
2018-06-29T09:40:36.276Z,1.60
2018-06-29T09:41:36.436Z,1.60
2018-06-29T09:42:36.641Z,1.50
2018-06-29T09:43:36.759Z,1.60
2018-06-29T09:44:36.920Z,1.50
2018-06-29T09:45:37.080Z,1.60
2018-06-29T09:46:37.242Z,1.50
2018-06-29T09:47:37.404Z,1.30
2018-06-29T09:48:37.567Z,1.50
2018-06-29T09:49:37.729Z,1.60
2018-06-29T09:50:37.905Z,1.40
2018-06-29T09:51:38.069Z,1.60
2018-06-29T09:52:38.229Z,1.50
2018-06-29T09:53:38.391Z,1.60
2018-06-29T09:54:38.557Z,1.40
2018-06-29T09:55:38.720Z,1.40
2018-06-29T09:56:38.882Z,1.40
2018-06-29T09:57:39.043Z,1.70
2018-06-29T09:58:39.207Z,1.60
2018-06-29T09:59:39.380Z,1.40
2018-06-29T10:00:39.602Z,1.40
2018-06-29T10:01:39.693Z,1.50
2018-06-29T10:02:39.857Z,1.60
2018-06-29T10:03:40.029Z,1.50
2018-06-29T10:04:40.179Z,1.30
2018-06-29T10:05:40.343Z,1.40
2018-06-29T10:06:40.504Z,1.70
2018-06-29T10:07:40.666Z,1.60
2018-06-29T10:08:40.828Z,1.40
2018-06-29T10:09:40.993Z,1.80
2018-06-29T10:10:41.156Z,1.70
2018-06-29T10:11:41.318Z,1.80
2018-06-29T10:12:41.478Z,1.90
2018-06-29T10:13:41.643Z,1.20
2018-06-29T10:14:41.803Z,1.40
2018-06-29T10:15:41.967Z,1.50
2018-06-29T10:16:42.125Z,1.80
2018-06-29T10:17:42.288Z,2.20
2018-06-29T10:18:42.453Z,2.60
2018-06-29T10:19:42.764Z,2.20
2018-06-29T10:20:42.776Z,1.80
2018-06-29T10:21:42.936Z,2.40
2018-06-29T10:22:43.104Z,2.00
2018-06-29T10:23:43.264Z,1.90
2018-06-29T10:24:43.429Z,2.30
2018-06-29T10:25:43.589Z,1.70
2018-06-29T10:26:43.752Z,1.70
2018-06-29T10:27:43.921Z,1.70
2018-06-29T10:28:44.079Z,1.40
2018-06-29T10:29:44.243Z,1.30
2018-06-29T10:30:44.409Z,1.50
2018-06-29T10:31:44.567Z,1.60
2018-06-29T10:32:44.730Z,1.60
2018-06-29T10:33:44.894Z,1.60
2018-06-29T10:34:45.057Z,1.40
2018-06-29T10:35:45.218Z,1.70
2018-06-29T10:36:45.454Z,1.70
2018-06-29T10:37:45.544Z,1.70
2018-06-29T10:38:45.746Z,1.70
2018-06-29T10:39:45.870Z,1.50
2018-06-29T10:40:46.033Z,1.80
2018-06-29T10:41:46.197Z,1.60
2018-06-29T10:42:46.358Z,1.50
2018-06-29T10:43:46.527Z,1.50
2018-06-29T10:44:46.724Z,1.30
2018-06-29T10:45:46.848Z,1.50
2018-06-29T10:46:47.010Z,1.60
2018-06-29T10:47:47.175Z,1.60
2018-06-29T10:48:47.341Z,2.30
2018-06-29T10:49:47.504Z,1.50
2018-06-29T10:50:47.665Z,1.40
2018-06-29T10:51:47.830Z,1.50
2018-06-29T10:52:48.067Z,1.50
2018-06-29T10:53:48.163Z,1.40
2018-06-29T10:54:48.321Z,2.00
2018-06-29T10:55:48.487Z,1.70
2018-06-29T10:56:48.649Z,1.60
2018-06-29T10:57:48.811Z,1.50
2018-06-29T10:58:48.976Z,1.90
2018-06-29T10:59:49.142Z,1.60
2018-06-29T11:00:49.303Z,1.90
2018-06-29T11:01:49.467Z,1.60
2018-06-29T11:02:49.629Z,1.80
2018-06-29T11:03:49.796Z,2.00
2018-06-29T11:04:49.957Z,2.00
2018-06-29T11:05:50.121Z,1.80
2018-06-29T11:06:50.284Z,1.70
2018-06-29T11:07:50.450Z,1.50
2018-06-29T11:08:50.612Z,1.50
2018-06-29T11:09:50.777Z,1.30
2018-06-29T11:10:50.942Z,1.60
2018-06-29T11:11:51.103Z,1.80
2018-06-29T11:12:51.267Z,1.80
2018-06-29T11:13:51.431Z,1.60
2018-06-29T11:14:51.597Z,1.60
2018-06-29T11:15:51.760Z,1.60
2018-06-29T11:16:51.928Z,1.70
2018-06-29T11:17:52.091Z,1.60
2018-06-29T11:18:52.254Z,1.50
2018-06-29T11:19:52.416Z,1.60
2018-06-29T11:20:52.578Z,1.60
2018-06-29T11:21:52.740Z,2.40
2018-06-29T11:22:52.902Z,1.90
2018-06-29T11:23:53.068Z,1.80
2018-06-29T11:24:53.231Z,1.50
2018-06-29T11:25:53.394Z,2.50
2018-06-29T11:26:53.561Z,1.60
2018-06-29T11:27:53.723Z,1.60
2018-06-29T11:28:53.888Z,1.60
2018-06-29T11:29:54.050Z,1.50
2018-06-29T11:30:54.217Z,1.50
2018-06-29T11:31:54.383Z,1.50
2018-06-29T11:32:54.545Z,2.50
2018-06-29T11:33:54.706Z,1.90
2018-06-29T11:34:54.866Z,1.60
2018-06-29T11:35:55.031Z,1.50
2018-06-29T11:36:55.193Z,1.70
2018-06-29T11:37:55.360Z,1.70
2018-06-29T11:38:55.523Z,2.50
2018-06-29T11:39:55.688Z,2.10
2018-06-29T11:40:55.851Z,1.80
2018-06-29T11:41:56.019Z,2.00
2018-06-29T11:42:56.177Z,1.60
2018-06-29T11:43:56.340Z,1.80
2018-06-29T11:44:56.505Z,1.60
2018-06-29T11:45:56.667Z,1.80
2018-06-29T11:46:56.833Z,1.60
2018-06-29T11:47:56.997Z,1.70
2018-06-29T11:48:57.161Z,2.10
2018-06-29T11:49:57.331Z,1.50
2018-06-29T11:50:57.489Z,1.70
2018-06-29T11:51:57.653Z,1.80
2018-06-29T11:52:57.817Z,2.80
2018-06-29T11:53:57.982Z,2.00
2018-06-29T11:54:58.144Z,2.50
2018-06-29T11:55:58.308Z,1.80
2018-06-29T11:56:58.472Z,1.50
2018-06-29T11:57:58.638Z,1.70
2018-06-29T11:58:58.801Z,1.50
2018-06-29T11:59:58.974Z,1.80
2018-06-29T12:00:59.128Z,2.30
2018-06-29T12:01:59.290Z,1.80
2018-06-29T12:02:59.458Z,1.90
2018-06-29T12:03:59.620Z,1.60
2018-06-29T12:04:59.782Z,1.60
2018-06-29T12:05:59.947Z,1.40
2018-06-29T12:07:00.117Z,1.80
2018-06-29T12:08:00.276Z,1.60
2018-06-29T12:09:00.450Z,1.50
2018-06-29T12:10:00.608Z,1.90
2018-06-29T12:11:00.775Z,1.90
2018-06-29T12:12:00.940Z,1.70
2018-06-29T12:13:01.104Z,2.00
2018-06-29T12:14:01.270Z,2.30
2018-06-29T12:15:01.434Z,2.20
2018-06-29T12:16:01.599Z,2.30
2018-06-29T12:17:01.765Z,2.20
2018-06-29T12:18:01.928Z,1.80
2018-06-29T12:19:02.092Z,1.60
2018-06-29T12:20:02.260Z,1.50
2018-06-29T12:21:02.425Z,1.50
2018-06-29T12:22:02.586Z,1.50
2018-06-29T12:23:02.751Z,1.50
2018-06-29T12:24:02.916Z,1.60
2018-06-29T12:25:03.079Z,1.60
2018-06-29T12:26:03.246Z,1.50
2018-06-29T12:27:03.411Z,1.60
2018-06-29T12:28:03.636Z,1.60
2018-06-29T12:29:03.742Z,1.70
2018-06-29T12:30:03.908Z,1.60
2018-06-29T12:31:04.075Z,1.80
2018-06-29T12:32:04.240Z,1.50
2018-06-29T12:33:04.405Z,1.40
2018-06-29T12:34:04.574Z,1.80
2018-06-29T12:35:04.740Z,1.50
2018-06-29T12:36:04.910Z,1.60
2018-06-29T12:37:05.076Z,1.50
2018-06-29T12:38:05.281Z,1.50
2018-06-29T12:39:05.404Z,1.40
2018-06-29T12:40:05.569Z,1.60
2018-06-29T12:41:05.731Z,1.60
2018-06-29T12:42:05.901Z,1.80
2018-06-29T12:43:06.065Z,2.30
2018-06-29T12:44:06.230Z,2.30
2018-06-29T12:45:06.396Z,2.30
2018-06-29T12:46:06.578Z,2.40
2018-06-29T12:47:06.729Z,1.70
2018-06-29T12:48:06.894Z,1.90
2018-06-29T12:49:07.060Z,1.40
2018-06-29T12:50:07.221Z,1.70
2018-06-29T12:51:07.389Z,1.50
2018-06-29T12:52:07.555Z,1.60
2018-06-29T12:53:07.725Z,1.70
2018-06-29T12:54:07.884Z,1.60
2018-06-29T12:55:08.049Z,1.60
2018-06-29T12:56:08.213Z,1.50
2018-06-29T12:57:08.379Z,1.60
2018-06-29T12:58:08.544Z,1.50
2018-06-29T12:59:08.710Z,1.50
2018-06-29T13:00:08.878Z,1.50
2018-06-29T13:01:09.042Z,1.30
2018-06-29T13:02:09.208Z,1.40
2018-06-29T13:03:09.375Z,1.50
2018-06-29T13:04:09.540Z,1.60
2018-06-29T13:05:09.707Z,1.60
2018-06-29T13:06:09.873Z,1.60
2018-06-29T13:07:10.188Z,1.60
2018-06-29T13:08:10.197Z,1.60
2018-06-29T13:09:10.360Z,1.50
2018-06-29T13:10:10.528Z,1.60
2018-06-29T13:11:10.692Z,1.40
2018-06-29T13:12:10.856Z,1.70
2018-06-29T13:13:11.021Z,2.30
2018-06-29T13:14:11.216Z,2.40
2018-06-29T13:15:11.352Z,2.10
2018-06-29T13:16:11.517Z,1.80
2018-06-29T13:17:11.686Z,1.60
2018-06-29T13:18:11.854Z,1.70
2018-06-29T13:19:12.016Z,2.30
2018-06-29T13:20:12.178Z,2.40